Time;durP1;ratioP1;P1;durP2;ratioP2;P2;SDS_P1;SDS_P2;PMS_P1;PMS_P2;Temp;Humidity;BMP_temperature;BMP_pressure;BME280_temperature;BME280_humidity;BME280_pressure;Samples;Min_cycle;Max_cycle;Signal;HPM_P1;HPM_P2
2023/06/30 00:01:49;;;;;;;3.70;3.40;;;;;;;;;;5077915;28;20211;-65
2023/06/30 00:04:17;;;;;;;4.25;3.70;;;;;;;;;;5087728;28;20258;-65
2023/06/30 00:06:44;;;;;;;4.32;3.92;;;;;;;;;;5080813;28;20230;-64
2023/06/30 00:09:11;;;;;;;4.38;3.55;;;;;;;;;;5072907;28;20225;-64
2023/06/30 00:11:40;;;;;;;4.45;3.80;;;;;;;;;;5069766;28;20307;-66
2023/06/30 00:14:07;;;;;;;3.75;3.45;;;;;;;;;;5068160;28;20222;-65
2023/06/30 00:16:34;;;;;;;4.78;3.40;;;;;;;;;;5069381;28;20744;-65
2023/06/30 00:19:03;;;;;;;3.42;3.13;;;;;;;;;;5086085;28;20218;-65
2023/06/30 00:21:30;;;;;;;3.83;3.50;;;;;;;;;;5085543;28;20241;-64
2023/06/30 00:24:01;;;;;;;4.70;3.97;;;;;;;;;;5086660;28;20202;-65
2023/06/30 00:26:28;;;;;;;4.60;4.03;;;;;;;;;;5087384;28;20300;-64
2023/06/30 00:28:55;;;;;;;3.88;3.60;;;;;;;;;;5072950;28;20201;-65
2023/06/30 00:31:22;;;;;;;4.95;3.42;;;;;;;;;;5073451;28;20199;-65
2023/06/30 00:33:49;;;;;;;4.20;3.65;;;;;;;;;;5076533;28;20413;-65
2023/06/30 00:36:18;;;;;;;4.03;3.53;;;;;;;;;;5067324;28;20226;-65
2023/06/30 00:38:45;;;;;;;5.93;3.65;;;;;;;;;;5067461;28;20211;-65
2023/06/30 00:41:12;;;;;;;9.32;3.97;;;;;;;;;;5067225;28;20203;-64
2023/06/30 00:43:39;;;;;;;4.85;3.90;;;;;;;;;;5066965;28;20203;-65
2023/06/30 00:46:06;;;;;;;4.47;3.50;;;;;;;;;;5073286;28;20286;-65
2023/06/30 00:48:33;;;;;;;3.70;3.13;;;;;;;;;;5085613;28;20206;-65
2023/06/30 00:51:00;;;;;;;4.38;3.47;;;;;;;;;;5077960;28;20202;-65
2023/06/30 00:53:29;;;;;;;6.93;3.47;;;;;;;;;;5076911;28;20218;-65
2023/06/30 00:55:56;;;;;;;4.55;3.80;;;;;;;;;;5086691;28;20276;-65
2023/06/30 00:58:23;;;;;;;5.50;3.70;;;;;;;;;;5084757;28;20206;-65
2023/06/30 01:00:50;;;;;;;5.07;3.75;;;;;;;;;;5064399;28;20203;-65
2023/06/30 01:03:21;;;;;;;6.57;3.80;;;;;;;;;;5076378;28;20206;-65
2023/06/30 01:05:56;;;;;;;3.95;3.42;;;;;;;;;;5087088;28;20680;-65
2023/06/30 01:08:26;;;;;;;3.58;3.20;;;;;;;;;;5090388;28;20205;-65
2023/06/30 01:10:56;;;;;;;3.85;3.33;;;;;;;;;;5090073;28;20201;-65
2023/06/30 01:13:24;;;;;;;4.68;3.28;;;;;;;;;;5083511;28;20214;-65
2023/06/30 01:15:52;;;;;;;6.97;3.45;;;;;;;;;;5081442;28;20222;-65
2023/06/30 01:18:20;;;;;;;3.92;3.60;;;;;;;;;;5076311;28;20203;-65
2023/06/30 01:20:48;;;;;;;5.35;3.85;;;;;;;;;;5072187;28;20211;-64
2023/06/30 01:23:17;;;;;;;3.85;3.55;;;;;;;;;;5086222;28;20206;-65
2023/06/30 01:25:45;;;;;;;5.80;3.30;;;;;;;;;;5084754;28;20205;-65
2023/06/30 01:28:14;;;;;;;4.25;3.20;;;;;;;;;;5089457;28;20222;-65
2023/06/30 01:30:41;;;;;;;5.97;3.90;;;;;;;;;;5089595;28;20206;-65
2023/06/30 01:33:08;;;;;;;3.88;3.58;;;;;;;;;;5078831;28;20207;-64
2023/06/30 01:35:36;;;;;;;8.65;3.75;;;;;;;;;;5079848;28;20218;-65
2023/06/30 01:38:03;;;;;;;3.60;3.30;;;;;;;;;;5083678;28;20199;-65
2023/06/30 01:40:30;;;;;;;3.88;2.95;;;;;;;;;;5081316;28;20202;-64
2023/06/30 01:42:58;;;;;;;4.13;3.15;;;;;;;;;;5079133;28;20741;-65
2023/06/30 01:45:27;;;;;;;4.13;3.22;;;;;;;;;;5087067;28;20209;-65
2023/06/30 01:47:54;;;;;;;4.70;3.40;;;;;;;;;;5071902;28;20214;-65
2023/06/30 01:50:21;;;;;;;6.78;3.50;;;;;;;;;;5089075;28;20207;-66
2023/06/30 01:52:48;;;;;;;3.72;3.38;;;;;;;;;;5080580;28;20206;-65
2023/06/30 01:55:15;;;;;;;3.38;3.08;;;;;;;;;;5074465;28;20226;-65
2023/06/30 01:57:43;;;;;;;3.22;2.92;;;;;;;;;;5085522;28;20261;-65
2023/06/30 02:00:10;;;;;;;3.53;3.03;;;;;;;;;;5073754;28;20217;-65
2023/06/30 02:02:38;;;;;;;3.20;3.00;;;;;;;;;;5084747;28;20209;-65
2023/06/30 02:05:06;;;;;;;5.22;3.10;;;;;;;;;;5082209;28;20227;-65
2023/06/30 02:07:33;;;;;;;3.60;3.28;;;;;;;;;;5080985;28;20230;-65
2023/06/30 02:10:00;;;;;;;2.88;2.70;;;;;;;;;;5070440;28;20211;-65
2023/06/30 02:12:27;;;;;;;4.15;3.13;;;;;;;;;;5079796;28;20199;-65
2023/06/30 02:14:54;;;;;;;3.10;2.90;;;;;;;;;;5088173;28;20203;-65
2023/06/30 02:17:27;;;;;;;4.93;3.50;;;;;;;;;;5083909;28;20580;-65
2023/06/30 02:19:56;;;;;;;3.60;3.30;;;;;;;;;;5089515;28;20740;-65
2023/06/30 02:22:23;;;;;;;3.40;3.10;;;;;;;;;;5083695;28;20225;-65
2023/06/30 02:24:50;;;;;;;2.97;2.78;;;;;;;;;;5089565;28;20733;-65
2023/06/30 02:27:17;;;;;;;5.00;3.60;;;;;;;;;;5080826;28;20219;-65
2023/06/30 02:29:44;;;;;;;3.58;3.20;;;;;;;;;;5070839;28;20235;-65
2023/06/30 02:32:11;;;;;;;4.78;3.10;;;;;;;;;;5083412;28;20225;-65
2023/06/30 02:34:38;;;;;;;6.35;3.30;;;;;;;;;;5072858;28;20256;-65
2023/06/30 02:37:07;;;;;;;3.03;2.70;;;;;;;;;;5075204;28;20230;-65
2023/06/30 02:39:34;;;;;;;3.65;3.15;;;;;;;;;;5087316;28;20206;-65
2023/06/30 02:42:01;;;;;;;3.30;2.58;;;;;;;;;;5077744;28;20210;-65
2023/06/30 02:44:28;;;;;;;4.72;3.40;;;;;;;;;;5083559;28;20264;-65
2023/06/30 02:46:55;;;;;;;3.30;3.00;;;;;;;;;;5071935;28;20199;-65
2023/06/30 02:49:22;;;;;;;3.60;3.30;;;;;;;;;;5068707;28;20673;-65
2023/06/30 02:51:49;;;;;;;3.17;3.03;;;;;;;;;;5068508;28;20218;-65
2023/06/30 02:54:17;;;;;;;4.13;2.80;;;;;;;;;;5073722;28;20292;-65
2023/06/30 02:56:59;;;;;;;6.07;3.08;;;;;;;;;;5078185;28;20571;-65
2023/06/30 02:59:26;;;;;;;3.63;3.33;;;;;;;;;;5082139;28;20672;-65
2023/06/30 03:01:54;;;;;;;2.83;2.70;;;;;;;;;;5077212;28;20301;-65
2023/06/30 03:04:21;;;;;;;6.28;3.80;;;;;;;;;;5083119;28;20236;-65
2023/06/30 03:06:48;;;;;;;4.10;3.13;;;;;;;;;;5072952;28;20218;-65
2023/06/30 03:09:15;;;;;;;3.78;2.90;;;;;;;;;;5075278;28;20214;-65
2023/06/30 03:11:43;;;;;;;4.38;3.53;;;;;;;;;;5085794;28;20605;-65
2023/06/30 03:14:10;;;;;;;3.45;2.90;;;;;;;;;;5087053;28;20218;-65
2023/06/30 03:16:37;;;;;;;3.28;3.08;;;;;;;;;;5086409;28;20253;-65
2023/06/30 03:19:04;;;;;;;4.13;3.42;;;;;;;;;;5080977;28;20199;-65
2023/06/30 03:21:31;;;;;;;3.33;3.05;;;;;;;;;;5071372;28;20238;-65
2023/06/30 03:23:58;;;;;;;6.63;3.80;;;;;;;;;;5069042;28;20209;-65
2023/06/30 03:26:28;;;;;;;3.88;3.30;;;;;;;;;;5078750;28;20264;-65
2023/06/30 03:28:56;;;;;;;5.03;4.18;;;;;;;;;;5079282;28;20256;-65
2023/06/30 03:31:23;;;;;;;11.60;4.93;;;;;;;;;;5075429;28;20578;-65
2023/06/30 03:33:50;;;;;;;8.23;5.28;;;;;;;;;;5081225;28;20210;-65
2023/06/30 03:36:17;;;;;;;9.38;6.22;;;;;;;;;;5081464;28;20231;-65
2023/06/30 03:38:44;;;;;;;9.50;5.63;;;;;;;;;;5085765;28;20213;-66
2023/06/30 03:41:11;;;;;;;10.93;5.80;;;;;;;;;;5087691;28;20624;-64
2023/06/30 03:43:38;;;;;;;12.10;5.50;;;;;;;;;;5075012;28;20564;-64
2023/06/30 03:46:09;;;;;;;8.43;5.80;;;;;;;;;;5079677;28;20210;-64
2023/06/30 03:48:36;;;;;;;10.57;6.60;;;;;;;;;;5080489;28;20210;-64
2023/06/30 03:51:03;;;;;;;8.68;5.82;;;;;;;;;;5081510;28;20206;-65
2023/06/30 03:53:30;;;;;;;13.75;6.97;;;;;;;;;;5068344;28;20202;-64
2023/06/30 03:55:58;;;;;;;10.43;6.35;;;;;;;;;;5068060;28;20231;-65
2023/06/30 03:58:26;;;;;;;13.07;6.68;;;;;;;;;;5067707;28;20303;-65
2023/06/30 04:00:53;;;;;;;12.48;7.45;;;;;;;;;;5068738;28;20237;-65
2023/06/30 04:03:21;;;;;;;10.75;6.78;;;;;;;;;;5069965;28;20210;-64
2023/06/30 04:05:48;;;;;;;12.00;7.05;;;;;;;;;;5068316;28;20230;-65
2023/06/30 04:08:15;;;;;;;13.48;6.80;;;;;;;;;;5070532;28;20222;-65
2023/06/30 04:10:42;;;;;;;11.68;6.80;;;;;;;;;;5075532;28;20620;-65
2023/06/30 04:13:09;;;;;;;14.30;7.72;;;;;;;;;;5073758;28;20217;-64
2023/06/30 04:15:36;;;;;;;12.57;7.32;;;;;;;;;;5081953;28;20226;-71
2023/06/30 04:18:04;;;;;;;14.93;7.53;;;;;;;;;;5085367;28;20236;-73
2023/06/30 04:20:32;;;;;;;10.23;7.15;;;;;;;;;;5080260;28;20202;-66
2023/06/30 04:22:59;;;;;;;14.43;7.60;;;;;;;;;;5078274;28;20903;-67
2023/06/30 04:25:26;;;;;;;11.48;7.18;;;;;;;;;;5081725;28;20206;-66
2023/06/30 04:27:53;;;;;;;9.80;6.53;;;;;;;;;;5088585;28;20206;-66
2023/06/30 04:30:20;;;;;;;12.45;7.13;;;;;;;;;;5088567;28;20673;-66
2023/06/30 04:32:47;;;;;;;9.63;6.20;;;;;;;;;;5087696;28;20217;-67
2023/06/30 04:35:15;;;;;;;10.73;6.10;;;;;;;;;;5075686;28;20207;-67
2023/06/30 04:37:44;;;;;;;7.72;5.75;;;;;;;;;;5080936;28;20233;-66
2023/06/30 04:40:11;;;;;;;10.48;5.57;;;;;;;;;;5087647;28;20210;-66
2023/06/30 04:42:39;;;;;;;8.73;5.53;;;;;;;;;;5085577;28;20248;-66
2023/06/30 04:45:07;;;;;;;9.07;5.88;;;;;;;;;;5081114;28;20314;-66
2023/06/30 04:47:34;;;;;;;10.02;6.05;;;;;;;;;;5088476;28;20202;-66
2023/06/30 04:50:01;;;;;;;10.77;6.07;;;;;;;;;;5088291;28;20214;-67
2023/06/30 04:52:28;;;;;;;10.57;6.05;;;;;;;;;;5084233;28;20272;-67
2023/06/30 04:54:57;;;;;;;9.02;6.35;;;;;;;;;;5078387;28;20215;-65
2023/06/30 04:57:24;;;;;;;10.48;7.13;;;;;;;;;;5074400;28;20214;-67
2023/06/30 04:59:51;;;;;;;12.30;7.03;;;;;;;;;;5087524;28;20267;-68
2023/06/30 05:02:19;;;;;;;14.98;7.13;;;;;;;;;;5085740;28;20210;-66
2023/06/30 05:04:46;;;;;;;11.25;6.88;;;;;;;;;;5078276;28;20238;-65
2023/06/30 05:07:13;;;;;;;11.90;7.05;;;;;;;;;;5087881;28;20272;-66
2023/06/30 05:09:40;;;;;;;13.38;7.65;;;;;;;;;;5087243;28;20209;-66
2023/06/30 05:12:09;;;;;;;19.25;8.18;;;;;;;;;;5067886;28;20199;-66
2023/06/30 05:14:36;;;;;;;19.15;9.25;;;;;;;;;;5076195;28;20244;-68
2023/06/30 05:17:04;;;;;;;21.45;9.43;;;;;;;;;;5088402;28;20230;-66
2023/06/30 05:19:31;;;;;;;26.92;11.30;;;;;;;;;;5088045;28;20217;-67
2023/06/30 05:21:58;;;;;;;19.25;10.52;;;;;;;;;;5084579;28;20234;-67
2023/06/30 05:24:25;;;;;;;22.70;10.57;;;;;;;;;;5088135;28;20217;-66
2023/06/30 05:26:53;;;;;;;24.00;11.55;;;;;;;;;;5087381;28;20679;-67
2023/06/30 05:29:21;;;;;;;20.45;11.00;;;;;;;;;;5084306;28;20634;-66
2023/06/30 05:31:48;;;;;;;26.65;11.48;;;;;;;;;;5079614;28;20218;-65
2023/06/30 05:34:15;;;;;;;23.05;11.27;;;;;;;;;;5077713;28;20283;-64
2023/06/30 05:36:44;;;;;;;20.05;10.88;;;;;;;;;;5080525;28;20226;-64
2023/06/30 05:39:11;;;;;;;24.63;10.82;;;;;;;;;;5073330;28;20305;-64
2023/06/30 05:41:38;;;;;;;29.98;11.90;;;;;;;;;;5072861;28;20693;-64
2023/06/30 05:44:06;;;;;;;24.75;12.02;;;;;;;;;;5067715;28;20849;-64
2023/06/30 05:46:37;;;;;;;22.45;10.85;;;;;;;;;;5076382;28;20199;-64
2023/06/30 05:49:05;;;;;;;39.78;15.45;;;;;;;;;;5074871;28;20249;-64
2023/06/30 05:51:33;;;;;;;26.80;12.40;;;;;;;;;;5085027;28;20206;-64
2023/06/30 05:54:00;;;;;;;25.95;11.35;;;;;;;;;;5072641;28;20210;-64
2023/06/30 05:56:27;;;;;;;26.10;12.10;;;;;;;;;;5087555;28;20222;-64
2023/06/30 05:58:54;;;;;;;30.48;11.52;;;;;;;;;;5090297;28;20251;-64
2023/06/30 06:01:21;;;;;;;24.20;11.60;;;;;;;;;;5086320;28;20564;-63
2023/06/30 06:03:50;;;;;;;23.98;12.57;;;;;;;;;;5090313;28;20218;-64
2023/06/30 06:06:17;;;;;;;23.35;11.88;;;;;;;;;;5088998;28;20870;-63
2023/06/30 06:08:46;;;;;;;22.90;11.48;;;;;;;;;;5084913;28;20647;-63
2023/06/30 06:11:13;;;;;;;26.25;12.32;;;;;;;;;;5087868;28;20210;-64
2023/06/30 06:13:40;;;;;;;21.05;10.93;;;;;;;;;;5090606;28;20210;-63
2023/06/30 06:16:08;;;;;;;23.95;11.15;;;;;;;;;;5089648;28;20206;-64
2023/06/30 06:18:35;;;;;;;17.58;8.55;;;;;;;;;;5088610;28;20206;-63
2023/06/30 06:21:04;;;;;;;15.90;7.95;;;;;;;;;;5090258;28;20226;-63
2023/06/30 06:23:31;;;;;;;9.93;6.95;;;;;;;;;;5075754;28;20715;-62
2023/06/30 06:25:58;;;;;;;11.80;6.03;;;;;;;;;;5090199;28;20210;-63
2023/06/30 06:28:26;;;;;;;8.18;5.10;;;;;;;;;;5070294;28;20206;-62
2023/06/30 06:30:53;;;;;;;6.70;4.97;;;;;;;;;;5072667;28;20298;-63
2023/06/30 06:33:20;;;;;;;8.85;4.57;;;;;;;;;;5089064;28;20259;-63
2023/06/30 06:35:47;;;;;;;5.95;4.10;;;;;;;;;;5100347;28;20214;-63
2023/06/30 06:38:18;;;;;;;7.60;4.20;;;;;;;;;;5090146;28;20238;-63
2023/06/30 06:40:45;;;;;;;6.07;4.40;;;;;;;;;;5090158;28;20215;-63
2023/06/30 06:43:12;;;;;;;3.47;2.45;;;;;;;;;;5089565;28;20214;-64
2023/06/30 06:45:41;;;;;;;4.43;2.97;;;;;;;;;;5089295;28;20213;-63
2023/06/30 06:48:23;;;;;;;3.50;3.17;;;;;;;;;;5089391;28;20201;-63
2023/06/30 06:50:51;;;;;;;2.38;2.15;;;;;;;;;;5095678;28;20212;-63
2023/06/30 06:53:21;;;;;;;2.75;2.55;;;;;;;;;;5109592;28;20261;-64
2023/06/30 06:55:48;;;;;;;2.17;1.98;;;;;;;;;;5074252;28;20206;-64
2023/06/30 06:58:15;;;;;;;2.53;2.33;;;;;;;;;;5089309;28;20238;-66
2023/06/30 07:00:43;;;;;;;1.70;1.60;;;;;;;;;;5074002;28;20211;-64
2023/06/30 07:03:10;;;;;;;2.60;2.40;;;;;;;;;;5087793;28;20852;-64
2023/06/30 07:05:39;;;;;;;1.75;1.65;;;;;;;;;;5081607;28;20808;-64
2023/06/30 07:08:06;;;;;;;1.85;1.75;;;;;;;;;;5054882;28;20662;-64
2023/06/30 07:10:34;;;;;;;1.55;1.45;;;;;;;;;;5079744;28;20206;-63
2023/06/30 07:13:01;;;;;;;1.48;1.40;;;;;;;;;;5073639;28;20654;-64
2023/06/30 07:15:28;;;;;;;1.33;1.23;;;;;;;;;;5067295;28;20206;-65
2023/06/30 07:17:56;;;;;;;1.20;1.20;;;;;;;;;;5066609;28;20227;-64
2023/06/30 07:20:23;;;;;;;1.75;0.90;;;;;;;;;;5068752;28;20207;-63
2023/06/30 07:22:51;;;;;;;0.90;0.90;;;;;;;;;;5068520;28;20269;-64
2023/06/30 07:25:18;;;;;;;0.70;0.70;;;;;;;;;;5068576;28;20209;-64
2023/06/30 07:27:52;;;;;;;0.85;0.85;;;;;;;;;;5049033;28;20254;-64
2023/06/30 07:30:19;;;;;;;1.67;0.98;;;;;;;;;;5048709;28;20625;-64
2023/06/30 07:32:46;;;;;;;0.70;0.70;;;;;;;;;;5062649;28;20211;-64
2023/06/30 07:35:14;;;;;;;0.80;0.80;;;;;;;;;;5068842;28;20207;-64
2023/06/30 07:37:41;;;;;;;0.85;0.85;;;;;;;;;;5068786;28;20325;-64
2023/06/30 07:40:08;;;;;;;1.10;1.10;;;;;;;;;;5051660;28;20268;-64
2023/06/30 07:42:38;;;;;;;0.80;0.80;;;;;;;;;;5049573;28;20207;-64
2023/06/30 07:45:07;;;;;;;0.80;0.80;;;;;;;;;;5068730;28;20219;-64
2023/06/30 07:47:34;;;;;;;1.10;1.10;;;;;;;;;;5068895;28;20215;-64
2023/06/30 07:50:02;;;;;;;1.95;1.13;;;;;;;;;;5066761;28;20654;-64
2023/06/30 07:52:29;;;;;;;1.45;1.45;;;;;;;;;;5068640;28;20266;-63
2023/06/30 07:54:57;;;;;;;1.00;1.00;;;;;;;;;;5068422;28;20287;-64
2023/06/30 07:57:26;;;;;;;0.88;0.88;;;;;;;;;;5065015;28;20499;-64
2023/06/30 07:59:53;;;;;;;0.90;0.90;;;;;;;;;;5067777;28;20207;-64
2023/06/30 08:02:21;;;;;;;0.88;0.88;;;;;;;;;;5068233;28;20199;-66
2023/06/30 08:04:49;;;;;;;0.95;0.85;;;;;;;;;;5078784;28;20236;-64
2023/06/30 08:07:16;;;;;;;0.63;0.63;;;;;;;;;;5087067;28;20294;-65
2023/06/30 08:09:43;;;;;;;0.52;0.52;;;;;;;;;;5087618;28;20824;-64
2023/06/30 08:12:11;;;;;;;1.15;0.70;;;;;;;;;;5073980;28;20475;-65
2023/06/30 08:14:38;;;;;;;0.60;0.60;;;;;;;;;;5078249;28;20874;-65
2023/06/30 08:17:05;;;;;;;0.45;0.45;;;;;;;;;;5082984;28;20226;-65
2023/06/30 08:19:33;;;;;;;0.70;0.70;;;;;;;;;;5069228;28;20214;-65
2023/06/30 08:22:01;;;;;;;0.60;0.60;;;;;;;;;;5071924;28;20230;-64
2023/06/30 08:24:28;;;;;;;0.70;0.70;;;;;;;;;;5075956;28;20203;-63
2023/06/30 08:26:55;;;;;;;0.68;0.68;;;;;;;;;;5069199;28;20224;-62
2023/06/30 08:29:22;;;;;;;0.60;0.60;;;;;;;;;;5079638;28;20260;-62
2023/06/30 08:31:49;;;;;;;0.80;0.80;;;;;;;;;;5085165;28;20210;-63
2023/06/30 08:34:16;;;;;;;3.85;0.90;;;;;;;;;;5086068;28;20968;-63
2023/06/30 08:36:45;;;;;;;0.50;0.50;;;;;;;;;;5086206;28;20201;-63
2023/06/30 08:39:13;;;;;;;0.70;0.70;;;;;;;;;;5086127;28;20576;-62
2023/06/30 08:41:40;;;;;;;0.57;0.57;;;;;;;;;;5081693;28;20203;-63
2023/06/30 08:44:07;;;;;;;0.70;0.70;;;;;;;;;;5088629;28;20214;-63
2023/06/30 08:46:35;;;;;;;0.75;0.75;;;;;;;;;;5094423;28;20245;-63
2023/06/30 08:49:02;;;;;;;0.47;0.47;;;;;;;;;;5088897;28;20201;-63
2023/06/30 08:51:30;;;;;;;0.52;0.52;;;;;;;;;;5087540;28;20210;-63
2023/06/30 08:53:58;;;;;;;0.60;0.60;;;;;;;;;;5086730;28;20210;-63
2023/06/30 08:56:30;;;;;;;0.65;0.65;;;;;;;;;;5087404;28;20201;-63
2023/06/30 08:58:57;;;;;;;0.47;0.40;;;;;;;;;;5082309;28;20598;-64
2023/06/30 09:01:24;;;;;;;0.60;0.60;;;;;;;;;;5103029;28;20213;-64
2023/06/30 09:03:51;;;;;;;1.05;0.47;;;;;;;;;;5082742;28;20241;-64
2023/06/30 09:06:19;;;;;;;0.70;0.70;;;;;;;;;;5086763;28;20212;-63
2023/06/30 09:08:49;;;;;;;0.55;0.47;;;;;;;;;;5067277;28;20203;-63
2023/06/30 09:11:18;;;;;;;0.55;0.55;;;;;;;;;;5067332;28;20234;-65
2023/06/30 09:13:46;;;;;;;0.40;0.40;;;;;;;;;;5067196;28;20213;-66
2023/06/30 09:16:17;;;;;;;0.52;0.52;;;;;;;;;;5047432;28;20826;-64
2023/06/30 09:18:45;;;;;;;0.47;0.47;;;;;;;;;;5047355;28;20231;-64
2023/06/30 09:21:12;;;;;;;0.65;0.55;;;;;;;;;;5069799;28;20226;-65
2023/06/30 09:23:40;;;;;;;0.70;0.70;;;;;;;;;;5064574;28;20211;-64
2023/06/30 09:26:13;;;;;;;0.52;0.52;;;;;;;;;;5049252;28;20208;-64
2023/06/30 09:28:42;;;;;;;0.68;0.68;;;;;;;;;;5050893;28;20238;-64
2023/06/30 09:31:09;;;;;;;0.70;0.70;;;;;;;;;;5065296;28;20250;-66
2023/06/30 09:33:37;;;;;;;1.55;0.63;;;;;;;;;;5070617;28;20249;-68
2023/06/30 09:36:05;;;;;;;0.40;0.40;;;;;;;;;;5072904;28;20657;-67
2023/06/30 09:38:32;;;;;;;0.57;0.57;;;;;;;;;;5068701;28;20303;-76
2023/06/30 09:40:59;;;;;;;0.43;0.43;;;;;;;;;;5060491;28;20681;-66
2023/06/30 09:43:26;;;;;;;0.57;0.57;;;;;;;;;;5056389;28;20227;-66
2023/06/30 09:45:59;;;;;;;0.43;0.43;;;;;;;;;;5054899;28;20225;-66
2023/06/30 09:48:30;;;;;;;0.40;0.40;;;;;;;;;;5048241;28;20227;-67
2023/06/30 09:50:57;;;;;;;0.50;0.50;;;;;;;;;;5057114;28;20297;-67
2023/06/30 09:53:24;;;;;;;6.03;0.40;;;;;;;;;;5070195;28;20603;-67
2023/06/30 09:55:52;;;;;;;0.40;0.40;;;;;;;;;;5070155;28;20202;-66
2023/06/30 09:58:20;;;;;;;0.40;0.40;;;;;;;;;;5067149;28;20705;-66
2023/06/30 10:00:47;;;;;;;0.40;0.40;;;;;;;;;;5058024;28;20203;-66
2023/06/30 10:03:16;;;;;;;0.45;0.45;;;;;;;;;;5059767;28;20230;-66
2023/06/30 10:05:44;;;;;;;0.40;0.40;;;;;;;;;;5087491;28;20272;-67
2023/06/30 10:08:12;;;;;;;0.50;0.50;;;;;;;;;;5090033;28;20706;-67
2023/06/30 10:10:41;;;;;;;0.85;0.40;;;;;;;;;;5087764;28;20305;-68
2023/06/30 10:13:08;;;;;;;0.40;0.40;;;;;;;;;;5077999;28;20210;-65
2023/06/30 10:15:36;;;;;;;0.55;0.55;;;;;;;;;;5069813;28;20645;-65
2023/06/30 10:18:03;;;;;;;0.50;0.50;;;;;;;;;;5087817;28;20235;-66
2023/06/30 10:20:32;;;;;;;0.45;0.45;;;;;;;;;;5069750;28;20211;-65
2023/06/30 10:23:01;;;;;;;0.50;0.50;;;;;;;;;;5085106;28;20202;-66
2023/06/30 10:25:29;;;;;;;0.47;0.47;;;;;;;;;;5089967;28;20218;-66
2023/06/30 10:27:56;;;;;;;0.60;0.60;;;;;;;;;;5089966;28;20210;-65
2023/06/30 10:30:23;;;;;;;0.50;0.50;;;;;;;;;;5089707;28;20222;-65
2023/06/30 10:32:50;;;;;;;0.50;0.50;;;;;;;;;;5089610;28;20218;-66
2023/06/30 10:35:17;;;;;;;0.75;0.75;;;;;;;;;;5069830;28;20214;-67
2023/06/30 10:37:47;;;;;;;0.60;0.60;;;;;;;;;;5068295;28;20716;-67
2023/06/30 10:40:24;;;;;;;0.60;0.60;;;;;;;;;;5069314;28;20210;-67
2023/06/30 10:42:52;;;;;;;0.65;0.50;;;;;;;;;;5068480;28;20306;-67
2023/06/30 10:45:20;;;;;;;0.70;0.70;;;;;;;;;;5068927;28;20218;-67
2023/06/30 10:47:50;;;;;;;0.70;0.70;;;;;;;;;;5068579;28;20237;-67
2023/06/30 10:50:17;;;;;;;0.90;0.90;;;;;;;;;;5068340;28;20302;-66
2023/06/30 10:52:52;;;;;;;0.70;0.70;;;;;;;;;;5068316;28;20199;-66
2023/06/30 10:55:22;;;;;;;0.70;0.70;;;;;;;;;;5075288;28;20656;-66
2023/06/30 10:57:51;;;;;;;0.88;0.88;;;;;;;;;;5087820;28;20314;-66
2023/06/30 11:00:18;;;;;;;0.90;0.90;;;;;;;;;;5082184;28;20198;-66
2023/06/30 11:02:49;;;;;;;0.80;0.80;;;;;;;;;;5085176;28;20654;-66
2023/06/30 11:05:20;;;;;;;0.70;0.70;;;;;;;;;;5103017;28;20242;-67
2023/06/30 11:07:48;;;;;;;0.80;0.80;;;;;;;;;;5087094;28;20210;-67
2023/06/30 11:10:26;;;;;;;1.00;1.00;;;;;;;;;;5097320;28;20226;-75
2023/06/30 11:12:54;;;;;;;0.90;0.85;;;;;;;;;;5085924;28;20218;-66
2023/06/30 11:15:28;;;;;;;0.80;0.80;;;;;;;;;;5086749;28;20203;-66
2023/06/30 11:17:59;;;;;;;0.57;0.57;;;;;;;;;;5084618;28;20836;-66
2023/06/30 11:20:27;;;;;;;0.70;0.70;;;;;;;;;;5087571;28;20307;-66
2023/06/30 11:22:56;;;;;;;0.90;0.90;;;;;;;;;;5086900;28;20242;-66
2023/06/30 11:25:25;;;;;;;3.65;0.88;;;;;;;;;;5087189;28;20205;-66
2023/06/30 11:27:52;;;;;;;1.00;1.00;;;;;;;;;;5077608;28;20661;-66
2023/06/30 11:30:20;;;;;;;0.70;0.70;;;;;;;;;;5085354;28;20303;-66
2023/06/30 11:32:47;;;;;;;1.00;0.95;;;;;;;;;;5087287;28;20230;-66
2023/06/30 11:35:15;;;;;;;0.63;0.63;;;;;;;;;;5083719;28;20270;-66
2023/06/30 11:37:47;;;;;;;0.82;0.82;;;;;;;;;;5069050;28;20589;-66
2023/06/30 11:40:15;;;;;;;0.90;0.90;;;;;;;;;;5074024;28;20225;-66
2023/06/30 11:42:44;;;;;;;1.20;0.90;;;;;;;;;;5073458;28;20305;-66
2023/06/30 11:45:16;;;;;;;1.45;0.63;;;;;;;;;;5084671;28;20206;-67
2023/06/30 11:47:46;;;;;;;3.30;0.93;;;;;;;;;;5086137;28;20248;-66
2023/06/30 11:50:14;;;;;;;0.57;0.57;;;;;;;;;;5087197;28;20293;-66
2023/06/30 11:52:41;;;;;;;0.50;0.50;;;;;;;;;;5086778;28;20826;-66
2023/06/30 11:55:09;;;;;;;0.63;0.63;;;;;;;;;;5086786;28;20605;-66
2023/06/30 11:57:36;;;;;;;1.48;0.68;;;;;;;;;;5087029;28;20577;-67
2023/06/30 12:00:09;;;;;;;0.65;0.57;;;;;;;;;;5075422;28;20592;-67
2023/06/30 12:02:37;;;;;;;0.60;0.60;;;;;;;;;;5067000;28;20210;-67
2023/06/30 12:05:11;;;;;;;0.57;0.57;;;;;;;;;;5066603;28;20304;-67
2023/06/30 12:07:38;;;;;;;0.63;0.63;;;;;;;;;;5066436;28;20217;-67
2023/06/30 12:10:05;;;;;;;0.60;0.60;;;;;;;;;;5066557;28;20669;-69
2023/06/30 12:12:33;;;;;;;0.60;0.60;;;;;;;;;;5066339;28;20638;-65
2023/06/30 12:15:03;;;;;;;0.60;0.60;;;;;;;;;;5066177;28;20257;-67
2023/06/30 12:17:31;;;;;;;0.70;0.70;;;;;;;;;;5080856;28;20301;-66
2023/06/30 12:19:58;;;;;;;0.80;0.80;;;;;;;;;;5079596;28;20233;-65
2023/06/30 12:22:27;;;;;;;0.70;0.70;;;;;;;;;;5085368;28;20230;-66
2023/06/30 12:24:57;;;;;;;0.85;0.85;;;;;;;;;;5086746;28;20202;-65
2023/06/30 12:27:27;;;;;;;0.80;0.80;;;;;;;;;;5085910;28;20206;-64
2023/06/30 12:29:54;;;;;;;0.75;0.75;;;;;;;;;;5078944;28;20229;-66
2023/06/30 12:32:22;;;;;;;1.75;0.80;;;;;;;;;;5085869;28;20624;-67
2023/06/30 12:35:00;;;;;;;0.75;0.75;;;;;;;;;;5086402;28;20230;-64
2023/06/30 12:37:29;;;;;;;0.75;0.75;;;;;;;;;;5086036;28;20281;-65
2023/06/30 12:39:56;;;;;;;0.93;0.93;;;;;;;;;;5066178;28;20273;-63
2023/06/30 12:42:24;;;;;;;0.88;0.88;;;;;;;;;;5066280;28;20218;-63
2023/06/30 12:44:51;;;;;;;1.00;1.00;;;;;;;;;;5080245;28;20694;-65
2023/06/30 12:47:18;;;;;;;0.73;0.73;;;;;;;;;;5086086;28;20446;-63
2023/06/30 12:49:45;;;;;;;0.70;0.70;;;;;;;;;;5079042;28;20578;-64
2023/06/30 12:52:15;;;;;;;0.82;0.82;;;;;;;;;;5082206;28;20211;-65
2023/06/30 12:54:42;;;;;;;0.80;0.80;;;;;;;;;;5072717;28;20295;-65
2023/06/30 12:57:09;;;;;;;0.98;0.80;;;;;;;;;;5066032;28;20573;-65
2023/06/30 12:59:37;;;;;;;1.30;1.13;;;;;;;;;;5084751;28;20230;-65
2023/06/30 13:02:04;;;;;;;1.30;1.00;;;;;;;;;;5090462;28;20214;-67
2023/06/30 13:04:31;;;;;;;0.98;0.98;;;;;;;;;;5078598;28;20239;-66
2023/06/30 13:06:59;;;;;;;0.93;0.93;;;;;;;;;;5087720;28;20206;-68
2023/06/30 13:09:27;;;;;;;0.95;0.95;;;;;;;;;;5090193;28;20326;-67
2023/06/30 13:11:55;;;;;;;0.90;0.90;;;;;;;;;;5085535;28;20199;-67
2023/06/30 13:14:22;;;;;;;1.00;1.00;;;;;;;;;;5084864;28;20848;-67
2023/06/30 13:16:49;;;;;;;0.90;0.90;;;;;;;;;;5090188;28;20210;-68
2023/06/30 13:19:16;;;;;;;0.98;0.98;;;;;;;;;;5085408;28;20229;-62
2023/06/30 13:21:43;;;;;;;1.15;1.15;;;;;;;;;;5085506;28;20241;-63
2023/06/30 13:24:11;;;;;;;1.52;1.52;;;;;;;;;;5076565;28;20210;-67
2023/06/30 13:26:39;;;;;;;1.67;1.58;;;;;;;;;;5082588;28;20956;-66
2023/06/30 13:29:06;;;;;;;2.53;1.52;;;;;;;;;;5085316;28;20203;-67
2023/06/30 13:31:34;;;;;;;1.83;1.73;;;;;;;;;;5085215;28;20202;-67
2023/06/30 13:34:01;;;;;;;1.40;1.40;;;;;;;;;;5088361;28;20217;-66
2023/06/30 13:36:29;;;;;;;1.23;1.13;;;;;;;;;;5088229;28;20215;-66
2023/06/30 13:38:56;;;;;;;1.65;1.40;;;;;;;;;;5074217;28;20237;-64
2023/06/30 13:41:25;;;;;;;1.13;1.13;;;;;;;;;;5089399;28;20214;-63
2023/06/30 13:43:54;;;;;;;3.22;1.50;;;;;;;;;;5083142;28;20247;-62
2023/06/30 13:46:21;;;;;;;1.20;1.20;;;;;;;;;;5069473;28;20642;-62
2023/06/30 13:48:48;;;;;;;1.63;1.63;;;;;;;;;;5087028;28;20202;-61
2023/06/30 13:51:15;;;;;;;1.25;1.25;;;;;;;;;;5089006;28;20214;-62
2023/06/30 13:53:42;;;;;;;1.50;1.40;;;;;;;;;;5085565;28;20238;-61
2023/06/30 13:56:09;;;;;;;1.48;1.10;;;;;;;;;;5087894;28;20202;-62
2023/06/30 13:58:36;;;;;;;1.35;1.35;;;;;;;;;;5076453;28;20280;-61
2023/06/30 14:01:05;;;;;;;1.00;1.00;;;;;;;;;;5069394;28;20211;-61
2023/06/30 14:03:33;;;;;;;7.03;1.73;;;;;;;;;;5074429;28;20654;-62
2023/06/30 14:06:00;;;;;;;1.05;1.05;;;;;;;;;;5076495;28;20375;-62
2023/06/30 14:08:27;;;;;;;1.10;1.10;;;;;;;;;;5082473;28;20210;-62
2023/06/30 14:10:54;;;;;;;1.08;1.08;;;;;;;;;;5069361;28;20237;-62
2023/06/30 14:13:21;;;;;;;1.30;1.10;;;;;;;;;;5078622;28;20341;-62
2023/06/30 14:15:48;;;;;;;1.10;1.10;;;;;;;;;;5067459;28;20215;-63
2023/06/30 14:18:17;;;;;;;0.80;0.80;;;;;;;;;;5073630;28;20282;-62
2023/06/30 14:20:46;;;;;;;1.45;1.40;;;;;;;;;;5069374;28;20223;-62
2023/06/30 14:23:13;;;;;;;1.10;1.10;;;;;;;;;;5075128;28;20234;-63
2023/06/30 14:25:40;;;;;;;0.70;0.70;;;;;;;;;;5088418;28;20214;-62
2023/06/30 14:28:08;;;;;;;0.80;0.80;;;;;;;;;;5079950;28;20248;-63
2023/06/30 14:30:49;;;;;;;0.70;0.70;;;;;;;;;;5069594;28;20265;-63
2023/06/30 14:33:17;;;;;;;0.90;0.90;;;;;;;;;;5076987;28;20226;-62
2023/06/30 14:35:44;;;;;;;0.98;0.95;;;;;;;;;;5084568;28;20274;-63
2023/06/30 14:38:11;;;;;;;0.73;0.73;;;;;;;;;;5089054;28;20217;-63
2023/06/30 14:40:38;;;;;;;0.85;0.85;;;;;;;;;;5088941;28;20701;-63
2023/06/30 14:43:05;;;;;;;0.95;0.80;;;;;;;;;;5072067;28;20218;-63
2023/06/30 14:45:34;;;;;;;1.15;0.95;;;;;;;;;;5068070;28;20207;-63